Time;durP1;ratioP1;P1;durP2;ratioP2;P2;SDS_P1;SDS_P2;PMS_P1;PMS_P2;Temp;Humidity;BMP_temperature;BMP_pressure;BME280_temperature;BME280_humidity;BME280_pressure;Samples;Min_cycle;Max_cycle;Signal;HPM_P1;HPM_P2
2024/01/31 00:01:21;;;;;;;7.75;6.25;;;8.20;99.90;;;;;;5056149;28;20212;-51
2024/01/31 00:03:47;;;;;;;10.55;6.80;;;8.20;99.90;;;;;;5055827;28;20175;-50
2024/01/31 00:06:13;;;;;;;8.60;6.13;;;8.30;99.90;;;;;;5055640;28;20200;-52
2024/01/31 00:08:39;;;;;;;10.65;6.68;;;8.20;99.90;;;;;;5055610;28;20171;-50
2024/01/31 00:11:06;;;;;;;7.88;5.85;;;8.20;99.90;;;;;;5055584;28;20187;-47
2024/01/31 00:13:32;;;;;;;8.05;5.88;;;8.20;99.90;;;;;;5055395;28;20172;-46
2024/01/31 00:15:58;;;;;;;8.98;6.55;;;8.20;99.90;;;;;;5055417;28;20195;-50
2024/01/31 00:18:23;;;;;;;7.40;6.05;;;8.20;99.90;;;;;;5055467;28;20210;-48
2024/01/31 00:20:49;;;;;;;7.85;6.05;;;8.30;99.90;;;;;;5055453;28;20171;-49
2024/01/31 00:23:14;;;;;;;6.53;5.80;;;8.30;99.90;;;;;;5055439;28;20183;-48
2024/01/31 00:25:40;;;;;;;7.00;6.20;;;8.20;99.90;;;;;;5055112;28;20284;-48
2024/01/31 00:28:06;;;;;;;9.88;6.85;;;8.20;99.90;;;;;;5055095;28;20651;-50
2024/01/31 00:30:32;;;;;;;7.75;6.35;;;8.20;99.90;;;;;;5055217;28;20203;-46
2024/01/31 00:32:57;;;;;;;9.30;6.35;;;8.20;99.90;;;;;;5055124;28;20628;-49
2024/01/31 00:35:23;;;;;;;10.23;6.90;;;8.30;99.90;;;;;;5055193;28;20183;-47
2024/01/31 00:37:48;;;;;;;9.10;7.20;;;8.20;99.90;;;;;;5055168;28;20183;-46
2024/01/31 00:40:14;;;;;;;9.30;6.90;;;8.20;99.90;;;;;;5054799;28;20175;-51
2024/01/31 00:42:41;;;;;;;11.60;7.35;;;8.20;99.90;;;;;;5054755;28;20202;-51
2024/01/31 00:45:08;;;;;;;11.27;7.50;;;8.20;99.90;;;;;;5055210;28;20225;-46
2024/01/31 00:47:34;;;;;;;10.77;8.27;;;8.20;99.90;;;;;;5054865;28;20591;-49
2024/01/31 00:49:59;;;;;;;11.77;8.40;;;8.20;99.90;;;;;;5054794;28;20179;-48
2024/01/31 00:52:26;;;;;;;10.32;8.77;;;8.20;99.90;;;;;;5054737;28;20175;-47
2024/01/31 00:54:52;;;;;;;11.63;8.10;;;8.20;99.90;;;;;;5054697;28;20179;-48
2024/01/31 00:57:18;;;;;;;14.70;9.18;;;8.20;99.90;;;;;;5054521;28;20659;-49
2024/01/31 00:59:44;;;;;;;13.50;8.95;;;8.20;99.90;;;;;;5055021;28;20176;-46
2024/01/31 01:02:10;;;;;;;11.65;9.00;;;8.20;99.90;;;;;;5054663;28;20176;-48
2024/01/31 01:04:35;;;;;;;14.27;8.73;;;8.20;99.90;;;;;;5054625;28;20183;-49
2024/01/31 01:07:01;;;;;;;11.43;8.90;;;8.20;99.90;;;;;;5054378;28;20213;-50
2024/01/31 01:09:27;;;;;;;12.73;9.32;;;8.20;99.90;;;;;;5054377;28;20183;-46
2024/01/31 01:11:52;;;;;;;12.23;8.25;;;8.20;99.90;;;;;;5054367;28;20675;-48
2024/01/31 01:14:18;;;;;;;12.77;9.00;;;8.20;99.90;;;;;;5054565;28;20195;-46
2024/01/31 01:16:44;;;;;;;12.57;8.90;;;8.20;99.90;;;;;;5054561;28;20191;-49
2024/01/31 01:19:10;;;;;;;12.90;9.70;;;8.20;99.90;;;;;;5054413;28;20690;-47
2024/01/31 01:21:36;;;;;;;13.52;9.43;;;8.10;99.90;;;;;;5054170;28;20210;-46
2024/01/31 01:24:02;;;;;;;14.55;10.00;;;8.00;99.90;;;;;;5054057;28;20277;-51
2024/01/31 01:26:28;;;;;;;11.63;9.77;;;8.00;99.90;;;;;;5053744;28;20231;-50
2024/01/31 01:28:54;;;;;;;13.13;10.65;;;8.10;99.90;;;;;;5054193;28;20248;-46
2024/01/31 01:31:19;;;;;;;12.77;10.23;;;8.10;99.90;;;;;;5054068;28;20171;-51
2024/01/31 01:33:45;;;;;;;12.95;10.32;;;8.10;99.90;;;;;;5054297;28;20612;-51
2024/01/31 01:36:11;;;;;;;12.73;10.35;;;8.10;99.90;;;;;;5053949;28;20544;-48
2024/01/31 01:38:37;;;;;;;12.40;11.02;;;8.10;99.90;;;;;;5053902;28;20531;-46
2024/01/31 01:41:04;;;;;;;13.50;10.27;;;8.10;99.90;;;;;;5053791;28;20179;-49
2024/01/31 01:43:30;;;;;;;13.40;10.25;;;8.00;99.90;;;;;;5054022;28;20627;-47
2024/01/31 01:46:05;;;;;;;14.20;10.65;;;8.00;99.90;;;;;;5054079;28;20214;-48
2024/01/31 01:48:31;;;;;;;13.80;11.10;;;8.00;99.90;;;;;;5053924;28;20246;-49
2024/01/31 01:50:57;;;;;;;14.45;11.10;;;8.00;99.90;;;;;;5053650;28;20203;-50
2024/01/31 01:53:23;;;;;;;14.45;10.80;;;8.00;99.90;;;;;;5053051;28;20179;-49
2024/01/31 01:55:49;;;;;;;13.85;10.68;;;8.00;99.90;;;;;;5053454;28;20178;-47
2024/01/31 01:58:15;;;;;;;15.48;12.02;;;8.00;99.90;;;;;;5053671;28;20266;-46
2024/01/31 02:00:43;;;;;;;14.23;11.75;;;7.90;99.90;;;;;;5053470;28;20616;-50
2024/01/31 02:03:09;;;;;;;17.25;11.50;;;7.90;99.90;;;;;;5053485;28;20172;-50
2024/01/31 02:05:35;;;;;;;15.43;11.73;;;7.90;99.90;;;;;;5053391;28;20213;-49
2024/01/31 02:08:02;;;;;;;15.73;10.93;;;7.90;99.90;;;;;;5053392;28;20621;-51
2024/01/31 02:10:27;;;;;;;14.00;10.70;;;7.90;99.90;;;;;;5053242;28;20245;-46
2024/01/31 02:12:53;;;;;;;14.82;10.70;;;7.90;99.90;;;;;;5053333;28;20179;-48
2024/01/31 02:15:19;;;;;;;15.18;10.98;;;7.90;99.90;;;;;;5053553;28;20186;-49
2024/01/31 02:17:44;;;;;;;16.88;10.90;;;7.80;99.90;;;;;;5053331;28;20543;-53
2024/01/31 02:20:15;;;;;;;16.25;10.68;;;7.80;99.90;;;;;;5053257;28;20536;-49
2024/01/31 02:22:45;;;;;;;17.83;12.05;;;7.80;99.90;;;;;;5053120;28;20187;-46
2024/01/31 02:25:13;;;;;;;15.00;11.38;;;7.80;99.90;;;;;;5053335;28;20231;-46
2024/01/31 02:27:39;;;;;;;15.45;11.93;;;7.80;99.90;;;;;;5053329;28;20207;-47
2024/01/31 02:30:06;;;;;;;16.33;11.98;;;7.80;99.90;;;;;;5053023;28;20233;-46
2024/01/31 02:32:32;;;;;;;17.83;12.00;;;7.80;99.90;;;;;;5053029;28;20197;-49
2024/01/31 02:34:57;;;;;;;17.27;12.85;;;7.80;99.90;;;;;;5053109;28;20540;-48
2024/01/31 02:37:23;;;;;;;16.77;11.88;;;7.80;99.90;;;;;;5052960;28;20179;-47
2024/01/31 02:39:49;;;;;;;16.02;11.90;;;7.90;99.90;;;;;;5052891;28;20259;-47
2024/01/31 02:42:14;;;;;;;16.88;12.15;;;7.80;99.90;;;;;;5053065;28;20347;-50
2024/01/31 02:44:40;;;;;;;17.38;11.35;;;7.90;99.90;;;;;;5053055;28;20575;-47
2024/01/31 02:47:06;;;;;;;15.27;12.18;;;7.80;99.90;;;;;;5053000;28;20214;-51
2024/01/31 02:49:32;;;;;;;14.75;12.48;;;7.80;99.90;;;;;;5052868;28;20190;-51
2024/01/31 02:51:57;;;;;;;16.02;12.70;;;7.80;99.90;;;;;;5052881;28;20172;-50
2024/01/31 02:54:23;;;;;;;15.77;11.98;;;7.80;99.90;;;;;;5052804;28;20210;-47
2024/01/31 02:56:48;;;;;;;16.17;12.30;;;7.80;99.90;;;;;;5052758;28;20190;-50
2024/01/31 02:59:14;;;;;;;18.75;12.98;;;7.70;99.90;;;;;;5052916;28;20178;-50
2024/01/31 03:01:47;;;;;;;18.27;13.10;;;7.70;99.90;;;;;;5053110;28;20525;-47
2024/01/31 03:04:13;;;;;;;18.58;13.00;;;7.80;99.90;;;;;;5055677;28;20180;-52
2024/01/31 03:06:39;;;;;;;18.00;12.55;;;7.80;99.90;;;;;;5056610;28;20234;-47
2024/01/31 03:09:09;;;;;;;19.70;13.23;;;7.80;99.90;;;;;;5056851;28;20229;-48
2024/01/31 03:11:35;;;;;;;20.10;13.95;;;7.70;99.90;;;;;;5056872;28;20183;-50
2024/01/31 03:14:00;;;;;;;19.27;12.63;;;7.80;99.90;;;;;;5056709;28;20179;-51
2024/01/31 03:16:26;;;;;;;17.67;12.75;;;7.70;99.90;;;;;;5056606;28;20185;-51
2024/01/31 03:18:53;;;;;;;19.05;13.95;;;7.80;99.90;;;;;;5056494;28;20176;-47
2024/01/31 03:21:19;;;;;;;23.05;14.80;;;7.80;99.90;;;;;;5056326;28;20172;-49
2024/01/31 03:23:44;;;;;;;21.88;14.05;;;7.80;99.90;;;;;;5056335;28;20228;-55
2024/01/31 03:26:12;;;;;;;19.80;14.48;;;7.80;99.90;;;;;;5056356;28;20269;-49
2024/01/31 03:28:37;;;;;;;23.63;15.20;;;7.80;99.90;;;;;;5056509;28;20505;-48
2024/01/31 03:31:03;;;;;;;21.02;14.73;;;7.80;99.90;;;;;;5056252;28;20183;-47
2024/01/31 03:33:29;;;;;;;20.63;14.88;;;7.80;99.90;;;;;;5056271;28;20175;-48
2024/01/31 03:35:54;;;;;;;17.95;13.68;;;7.80;99.90;;;;;;5056122;28;20185;-49
2024/01/31 03:38:20;;;;;;;22.15;14.98;;;7.80;99.90;;;;;;5056439;28;20187;-48
2024/01/31 03:40:46;;;;;;;21.75;14.80;;;7.80;99.90;;;;;;5056487;28;20183;-51
2024/01/31 03:43:11;;;;;;;22.63;14.43;;;7.80;99.90;;;;;;5056178;28;20182;-47
2024/01/31 03:45:37;;;;;;;18.80;13.93;;;7.80;99.90;;;;;;5056165;28;20179;-47
2024/01/31 03:48:03;;;;;;;21.65;14.73;;;7.80;99.90;;;;;;5055961;28;20225;-46
2024/01/31 03:50:28;;;;;;;16.70;12.73;;;7.80;99.90;;;;;;5056199;28;20319;-46
2024/01/31 03:52:54;;;;;;;21.58;13.63;;;7.80;99.90;;;;;;5038269;28;20171;-48
2024/01/31 03:55:19;;;;;;;18.33;13.05;;;7.80;99.90;;;;;;5055720;28;20175;-48
2024/01/31 03:57:45;;;;;;;20.70;13.98;;;7.70;99.90;;;;;;5057277;28;20176;-48
2024/01/31 04:00:11;;;;;;;20.25;14.05;;;7.70;99.90;;;;;;5075992;28;20174;-51
2024/01/31 04:02:38;;;;;;;24.98;13.48;;;7.70;99.90;;;;;;5075616;28;20181;-48
2024/01/31 04:05:04;;;;;;;19.30;13.18;;;7.70;99.90;;;;;;5075621;28;20670;-46
2024/01/31 04:07:29;;;;;;;19.20;14.20;;;7.70;99.90;;;;;;5075706;28;20206;-47
2024/01/31 04:09:55;;;;;;;19.55;13.25;;;7.60;99.90;;;;;;5075699;28;20261;-50
2024/01/31 04:12:21;;;;;;;22.10;13.43;;;7.60;99.90;;;;;;5075793;28;20174;-52
2024/01/31 04:14:46;;;;;;;18.33;12.75;;;7.70;99.90;;;;;;5075019;28;20268;-47
2024/01/31 04:17:12;;;;;;;17.42;12.32;;;7.60;99.90;;;;;;5075411;28;20179;-49
2024/01/31 04:19:38;;;;;;;24.02;14.00;;;7.60;99.90;;;;;;5075280;28;20711;-48
2024/01/31 04:22:04;;;;;;;20.65;14.57;;;7.60;99.90;;;;;;5075519;28;20167;-49
2024/01/31 04:24:32;;;;;;;22.15;12.68;;;7.70;99.90;;;;;;5075511;28;20541;-52
2024/01/31 04:26:57;;;;;;;18.83;13.02;;;7.70;99.90;;;;;;5075439;28;20230;-50
2024/01/31 04:29:23;;;;;;;18.23;12.48;;;7.70;99.90;;;;;;5075365;28;20531;-50
2024/01/31 04:31:52;;;;;;;19.42;12.55;;;7.60;99.90;;;;;;5075310;28;20527;-49
2024/01/31 04:34:18;;;;;;;16.40;12.82;;;7.60;99.90;;;;;;5074947;28;20536;-49
2024/01/31 04:36:44;;;;;;;21.05;12.57;;;7.60;99.90;;;;;;5075217;28;20181;-46
2024/01/31 04:39:09;;;;;;;15.75;11.98;;;7.60;99.90;;;;;;5057355;28;20179;-47
2024/01/31 04:41:35;;;;;;;17.98;12.13;;;7.60;99.90;;;;;;5074904;28;20266;-46
2024/01/31 04:44:01;;;;;;;14.90;11.40;;;7.50;99.90;;;;;;5074986;28;20214;-48
2024/01/31 04:46:27;;;;;;;19.45;12.93;;;7.60;99.90;;;;;;5074921;28;20626;-46
2024/01/31 04:48:53;;;;;;;16.70;12.55;;;7.50;99.90;;;;;;5057166;28;20183;-48
2024/01/31 04:51:19;;;;;;;19.17;12.13;;;7.60;99.90;;;;;;5075068;28;20228;-46
2024/01/31 04:53:44;;;;;;;20.00;13.25;;;7.50;99.90;;;;;;5074783;28;20171;-49
2024/01/31 04:56:10;;;;;;;15.32;11.65;;;7.50;99.90;;;;;;5074987;28;20630;-48
2024/01/31 04:58:36;;;;;;;18.45;11.95;;;7.50;99.90;;;;;;5074791;28;20212;-48
2024/01/31 05:01:03;;;;;;;15.05;11.38;;;7.50;99.90;;;;;;5074490;28;20178;-49
2024/01/31 05:03:29;;;;;;;15.55;11.20;;;7.50;99.90;;;;;;5074448;28;20584;-50
2024/01/31 05:05:55;;;;;;;17.42;10.98;;;7.50;99.90;;;;;;5074891;28;20256;-51
2024/01/31 05:08:21;;;;;;;16.23;10.82;;;7.50;99.90;;;;;;5074566;28;20193;-51
2024/01/31 05:10:46;;;;;;;17.52;10.90;;;7.60;99.90;;;;;;5074325;28;20555;-47
2024/01/31 05:13:13;;;;;;;17.73;11.00;;;7.50;99.90;;;;;;5074435;28;20182;-49
2024/01/31 05:15:38;;;;;;;19.02;11.05;;;7.60;99.90;;;;;;5074294;28;20181;-47
2024/01/31 05:18:04;;;;;;;17.65;10.75;;;7.60;99.90;;;;;;5074196;28;20175;-51
2024/01/31 05:20:30;;;;;;;15.48;10.18;;;7.60;99.90;;;;;;5074606;28;20517;-46
2024/01/31 05:22:58;;;;;;;16.63;10.63;;;7.60;99.90;;;;;;5074333;28;20182;-48
2024/01/31 05:25:30;;;;;;;15.27;10.00;;;7.60;99.90;;;;;;5074194;28;20717;-46
2024/01/31 05:27:56;;;;;;;13.90;10.50;;;7.60;99.90;;;;;;5073110;28;20263;-48
2024/01/31 05:30:21;;;;;;;14.77;10.00;;;7.60;99.90;;;;;;5074079;28;20582;-46
2024/01/31 05:32:47;;;;;;;16.48;10.40;;;7.60;99.90;;;;;;5073838;28;20609;-47
2024/01/31 05:35:13;;;;;;;15.27;10.68;;;7.60;99.90;;;;;;5074091;28;20179;-47
2024/01/31 05:37:39;;;;;;;14.27;9.90;;;7.60;99.90;;;;;;5074047;28;20171;-46
2024/01/31 05:40:05;;;;;;;15.45;10.57;;;7.60;99.90;;;;;;5073946;28;20520;-46
2024/01/31 05:42:31;;;;;;;15.77;10.93;;;7.60;99.90;;;;;;5073922;28;20644;-49
2024/01/31 05:44:57;;;;;;;14.65;9.85;;;7.60;99.90;;;;;;5073772;28;20205;-53
2024/01/31 05:47:23;;;;;;;14.80;10.07;;;7.60;99.90;;;;;;5073416;28;20698;-46
2024/01/31 05:49:48;;;;;;;17.65;10.80;;;7.60;99.90;;;;;;5061523;28;20187;-50
2024/01/31 05:52:14;;;;;;;16.63;10.35;;;7.50;99.90;;;;;;5043149;28;20176;-48
2024/01/31 05:54:40;;;;;;;14.57;11.63;;;7.60;99.90;;;;;;5050613;28;20207;-46
2024/01/31 05:57:06;;;;;;;16.90;11.52;;;7.60;99.90;;;;;;5053614;28;20184;-50
2024/01/31 05:59:32;;;;;;;17.92;10.75;;;7.60;99.90;;;;;;5053571;28;20179;-47
2024/01/31 06:01:58;;;;;;;16.80;10.60;;;7.50;99.90;;;;;;5053399;28;20183;-48
2024/01/31 06:04:24;;;;;;;16.55;11.55;;;7.50;99.90;;;;;;5053435;28;20571;-51
2024/01/31 06:06:53;;;;;;;16.65;11.50;;;7.40;99.90;;;;;;5053426;28;20207;-52
2024/01/31 06:09:18;;;;;;;16.20;10.98;;;7.40;99.90;;;;;;5053497;28;20175;-49
2024/01/31 06:11:44;;;;;;;15.45;11.68;;;7.50;99.90;;;;;;5053360;28;20175;-49
2024/01/31 06:14:09;;;;;;;18.27;12.15;;;7.50;99.90;;;;;;5053455;28;20182;-52
2024/01/31 06:16:35;;;;;;;15.55;11.35;;;7.50;99.90;;;;;;5053139;28;20183;-49
2024/01/31 06:19:01;;;;;;;19.35;12.10;;;7.50;99.90;;;;;;5053415;28;20532;-52
2024/01/31 06:21:27;;;;;;;17.33;12.35;;;7.50;99.90;;;;;;5053259;28;20187;-49
2024/01/31 06:23:54;;;;;;;21.15;13.02;;;7.60;99.90;;;;;;5053161;28;20182;-48
2024/01/31 06:26:20;;;;;;;19.48;12.32;;;7.60;99.90;;;;;;5053336;28;20318;-48
2024/01/31 06:28:48;;;;;;;20.80;13.00;;;7.60;99.90;;;;;;5053140;28;20308;-48
2024/01/31 06:31:24;;;;;;;20.90;14.43;;;7.70;99.90;;;;;;5053049;28;20668;-51
2024/01/31 06:33:49;;;;;;;25.10;15.80;;;7.60;99.90;;;;;;5053229;28;20190;-49
2024/01/31 06:36:15;;;;;;;21.55;15.38;;;7.70;99.90;;;;;;5053134;28;20185;-49
2024/01/31 06:38:41;;;;;;;26.65;16.55;;;7.60;99.90;;;;;;5052760;28;20173;-49
2024/01/31 06:41:15;;;;;;;22.40;16.15;;;7.70;99.90;;;;;;5052925;28;20179;-51
2024/01/31 06:43:41;;;;;;;21.02;14.52;;;7.70;99.90;;;;;;5052903;28;20208;-48
2024/01/31 06:46:07;;;;;;;24.77;14.27;;;7.70;99.90;;;;;;5053075;28;20218;-52
2024/01/31 06:48:33;;;;;;;24.23;14.88;;;7.70;99.90;;;;;;5053100;28;20199;-53
2024/01/31 06:50:59;;;;;;;22.75;15.77;;;7.70;99.90;;;;;;5052899;28;20225;-51
2024/01/31 06:53:24;;;;;;;26.27;16.23;;;7.60;99.90;;;;;;5053034;28;20230;-52
2024/01/31 06:55:51;;;;;;;25.83;16.17;;;7.60;99.90;;;;;;5052796;28;20183;-51
2024/01/31 06:58:16;;;;;;;26.80;16.05;;;7.50;99.90;;;;;;5052746;28;20182;-51
2024/01/31 07:00:42;;;;;;;24.35;17.05;;;7.50;99.90;;;;;;5052956;28;20179;-50
2024/01/31 07:03:08;;;;;;;28.58;18.67;;;7.50;99.90;;;;;;5053022;28;20180;-52
2024/01/31 07:05:34;;;;;;;34.38;21.02;;;7.60;99.90;;;;;;5053007;28;20214;-48
2024/01/31 07:07:59;;;;;;;32.05;20.80;;;7.50;99.90;;;;;;5052800;28;20213;-51
2024/01/31 07:10:25;;;;;;;31.67;21.80;;;7.50;99.90;;;;;;5052703;28;20698;-51
2024/01/31 07:12:52;;;;;;;33.05;22.10;;;7.50;99.90;;;;;;5052667;28;20171;-52
2024/01/31 07:15:22;;;;;;;38.83;23.77;;;7.50;99.90;;;;;;5052816;28;20218;-52
2024/01/31 07:17:47;;;;;;;37.70;23.50;;;7.50;99.90;;;;;;5052814;28;20190;-48
2024/01/31 07:20:13;;;;;;;33.45;24.23;;;7.50;99.90;;;;;;5052744;28;20172;-50
2024/01/31 07:22:39;;;;;;;36.38;25.63;;;7.50;99.90;;;;;;5052653;28;20635;-51
2024/01/31 08:02:58;;;;;;;43.25;25.85;;;7.50;99.90;;;;;;4843660;24;20588;31
2024/01/31 08:05:24;;;;;;;38.80;25.85;;;7.60;99.90;;;;;;4767413;30;20750;-69
2024/01/31 08:07:50;;;;;;;42.03;26.73;;;7.60;99.90;;;;;;4771655;30;20216;-69
2024/01/31 08:10:15;;;;;;;42.60;26.98;;;7.70;99.90;;;;;;4772286;30;20252;-70
2024/01/31 08:12:46;;;;;;;39.67;27.35;;;7.70;99.90;;;;;;4772461;30;20539;-70
2024/01/31 08:15:12;;;;;;;41.25;28.27;;;7.70;99.90;;;;;;4772382;30;20189;-70
2024/01/31 08:17:38;;;;;;;39.95;28.40;;;7.70;99.90;;;;;;4771740;30;20203;-69
2024/01/31 08:20:06;;;;;;;41.10;28.38;;;7.60;99.90;;;;;;4772106;30;20216;-70
2024/01/31 08:22:33;;;;;;;44.90;28.90;;;7.80;99.90;;;;;;4772081;30;20224;-70
2024/01/31 08:43:47;;;;;;;34.83;23.92;;;7.90;99.90;;;;;;4785537;30;20252;-61
2024/01/31 08:46:13;;;;;;;31.90;23.02;;;7.90;99.90;;;;;;4788982;30;20688;-61
2024/01/31 08:48:39;;;;;;;35.20;22.48;;;8.00;99.90;;;;;;4789225;30;20234;-61
2024/01/31 08:51:08;;;;;;;31.25;20.75;;;7.90;99.90;;;;;;4789521;30;20196;-61
2024/01/31 08:53:34;;;;;;;29.90;21.45;;;8.00;99.90;;;;;;4789192;30;20248;-61
2024/01/31 08:56:00;;;;;;;37.40;22.85;;;8.00;99.90;;;;;;4789541;30;20189;-61
2024/01/31 08:58:26;;;;;;;34.35;21.92;;;8.00;99.90;;;;;;4773013;30;20195;-61
2024/01/31 09:00:51;;;;;;;29.25;20.42;;;7.90;99.90;;;;;;4789603;29;20188;-61
2024/01/31 09:03:18;;;;;;;26.38;19.98;;;8.00;99.90;;;;;;4789476;30;20176;-61
2024/01/31 09:05:43;;;;;;;26.83;18.55;;;8.00;99.90;;;;;;4789407;30;20243;-60
2024/01/31 09:08:09;;;;;;;25.00;19.42;;;8.00;99.90;;;;;;4789276;30;20224;-61
2024/01/31 09:10:35;;;;;;;25.58;19.60;;;8.10;99.90;;;;;;4789569;30;20192;-61
2024/01/31 09:13:00;;;;;;;22.98;17.60;;;8.10;99.90;;;;;;4789075;30;20670;-61
2024/01/31 09:15:26;;;;;;;25.52;18.40;;;8.00;99.90;;;;;;4789410;30;20272;-61
2024/01/31 09:17:52;;;;;;;22.42;15.85;;;8.00;99.90;;;;;;4789296;30;20545;-61
2024/01/31 09:20:18;;;;;;;19.65;14.10;;;8.00;99.90;;;;;;4789173;30;20189;-60
2024/01/31 09:22:44;;;;;;;20.48;14.57;;;8.10;99.90;;;;;;4789008;30;20547;-60
2024/01/31 09:25:14;;;;;;;14.90;13.35;;;8.10;99.90;;;;;;4789664;30;20189;-60
2024/01/31 09:27:40;;;;;;;15.73;12.65;;;8.20;99.90;;;;;;4789207;30;20503;-61
2024/01/31 09:30:07;;;;;;;15.40;13.10;;;8.20;99.90;;;;;;4789730;30;20189;-61
2024/01/31 09:32:33;;;;;;;16.52;12.93;;;8.20;99.90;;;;;;4789109;30;20723;-61
2024/01/31 09:34:59;;;;;;;15.90;12.75;;;8.30;99.90;;;;;;4788871;30;20193;-60
2024/01/31 09:37:24;;;;;;;13.70;11.30;;;8.30;99.90;;;;;;4788854;30;20180;-60
2024/01/31 09:39:54;;;;;;;14.48;12.40;;;8.20;99.90;;;;;;4789245;30;20260;-61
2024/01/31 09:42:19;;;;;;;14.20;12.02;;;8.20;99.90;;;;;;4788663;30;20385;-60
2024/01/31 09:44:46;;;;;;;14.32;11.93;;;8.20;99.90;;;;;;4789020;30;20222;-61
2024/01/31 09:47:13;;;;;;;12.52;10.82;;;8.30;99.90;;;;;;4788737;30;20738;-61
2024/01/31 09:49:39;;;;;;;12.50;10.70;;;8.30;99.90;;;;;;4788727;30;20194;-60
2024/01/31 09:52:05;;;;;;;14.93;11.30;;;8.40;99.90;;;;;;4788613;30;20180;-61
2024/01/31 09:54:31;;;;;;;12.15;10.60;;;8.50;99.90;;;;;;4788821;30;20184;-60
2024/01/31 09:56:57;;;;;;;12.63;10.48;;;8.50;99.90;;;;;;4788738;30;20550;-61
2024/01/31 09:59:24;;;;;;;9.85;8.82;;;8.50;99.90;;;;;;4788703;30;20180;-61
2024/01/31 10:01:55;;;;;;;10.32;7.00;;;8.50;99.90;;;;;;4788725;30;20211;-61
2024/01/31 10:04:20;;;;;;;9.15;6.88;;;8.40;99.90;;;;;;4788514;30;20184;-60
2024/01/31 10:06:46;;;;;;;6.78;6.03;;;8.30;99.90;;;;;;4788814;30;20204;-60
2024/01/31 10:09:13;;;;;;;7.78;5.95;;;8.40;99.90;;;;;;4788567;30;20191;-61
2024/01/31 10:11:44;;;;;;;5.97;4.07;;;8.60;99.90;;;;;;4788557;30;20193;-61
2024/01/31 10:14:12;;;;;;;5.43;4.15;;;8.40;99.90;;;;;;4788258;30;20239;-60
2024/01/31 10:16:37;;;;;;;5.88;4.43;;;8.40;99.90;;;;;;4788512;30;20185;-61
2024/01/31 10:19:03;;;;;;;4.47;3.65;;;8.40;99.90;;;;;;4788233;30;20196;-61
2024/01/31 10:21:31;;;;;;;4.72;4.32;;;8.50;99.90;;;;;;4788429;30;20188;-61
2024/01/31 10:24:04;;;;;;;5.07;4.45;;;8.50;99.90;;;;;;4788421;30;20177;-61
2024/01/31 10:26:33;;;;;;;5.68;4.05;;;8.40;99.90;;;;;;4788256;30;20216;-61
2024/01/31 10:29:00;;;;;;;6.75;4.22;;;8.50;99.90;;;;;;4788340;30;20188;-61
2024/01/31 10:31:27;;;;;;;5.13;4.40;;;8.50;99.90;;;;;;4788168;30;20176;-61
2024/01/31 10:33:54;;;;;;;6.72;3.90;;;8.50;99.90;;;;;;4788051;30;20690;-61
2024/01/31 10:36:21;;;;;;;7.18;3.70;;;8.60;99.90;;;;;;4788306;30;20199;-61
2024/01/31 10:38:46;;;;;;;5.50;3.80;;;8.70;99.90;;;;;;4788482;30;20184;-61
2024/01/31 10:41:15;;;;;;;3.90;3.30;;;8.80;99.90;;;;;;4788133;30;20595;-61
2024/01/31 10:43:43;;;;;;;6.05;3.40;;;8.90;99.90;;;;;;4788050;30;20243;-61
2024/01/31 10:46:08;;;;;;;5.57;3.58;;;8.90;99.90;;;;;;4787842;30;20665;-61
2024/01/31 10:48:34;;;;;;;3.10;2.80;;;9.00;99.90;;;;;;4787994;30;20184;-61
2024/01/31 10:51:01;;;;;;;4.07;2.70;;;8.90;99.90;;;;;;4788178;30;20192;-61
2024/01/31 10:53:29;;;;;;;2.97;2.47;;;9.00;99.90;;;;;;4787881;30;20642;-61
2024/01/31 10:55:56;;;;;;;4.53;2.47;;;9.10;99.90;;;;;;4788061;30;20630;-61
2024/01/31 10:58:22;;;;;;;7.35;2.85;;;9.30;99.90;;;;;;4787964;30;20189;-61
2024/01/31 11:00:48;;;;;;;6.10;2.45;;;9.40;99.90;;;;;;4787843;30;20238;-61
2024/01/31 11:03:17;;;;;;;5.25;2.50;;;9.40;99.90;;;;;;4788085;30;20181;-61
2024/01/31 11:05:43;;;;;;;5.22;2.25;;;9.40;99.90;;;;;;4787984;30;20181;-61
2024/01/31 11:08:19;;;;;;;3.08;2.10;;;9.40;99.90;;;;;;4787970;30;20209;-60
2024/01/31 11:10:45;;;;;;;4.70;2.38;;;9.40;99.90;;;;;;4787801;30;20241;-61
2024/01/31 11:13:11;;;;;;;2.63;1.80;;;9.60;99.90;;;;;;4787816;30;20643;-60
2024/01/31 11:15:38;;;;;;;5.72;1.98;;;9.50;99.90;;;;;;4787757;30;20181;-60
2024/01/31 11:18:14;;;;;;;3.58;1.85;;;9.60;99.90;;;;;;4787751;30;20185;-60
2024/01/31 11:20:46;;;;;;;4.55;1.67;;;9.60;99.90;;;;;;4788061;30;20188;-60
2024/01/31 11:23:16;;;;;;;3.17;1.67;;;9.50;99.90;;;;;;4787934;30;20177;-61
2024/01/31 11:25:43;;;;;;;3.75;1.70;;;9.60;99.90;;;;;;4789488;29;20173;-61
2024/01/31 11:28:10;;;;;;;3.95;1.60;;;9.70;99.90;;;;;;4791190;30;20220;-61
2024/01/31 11:30:36;;;;;;;3.90;1.65;;;9.60;99.90;;;;;;4791022;30;20185;-61
2024/01/31 11:33:03;;;;;;;2.65;1.38;;;9.70;99.90;;;;;;4791173;30;20187;-61
2024/01/31 11:35:29;;;;;;;5.07;1.98;;;9.70;99.90;;;;;;4790607;30;20272;-61
2024/01/31 11:37:56;;;;;;;2.55;1.38;;;9.60;99.90;;;;;;4790923;30;20279;-61
2024/01/31 11:40:22;;;;;;;4.13;1.55;;;9.70;99.90;;;;;;4790535;30;20189;-60
2024/01/31 11:42:49;;;;;;;2.63;1.38;;;9.70;99.90;;;;;;4790407;30;20239;-61
2024/01/31 11:45:15;;;;;;;3.05;1.70;;;9.60;99.90;;;;;;4790909;30;20184;-60
2024/01/31 11:47:42;;;;;;;2.72;1.80;;;9.70;99.90;;;;;;4790559;30;20216;-61
2024/01/31 11:50:08;;;;;;;2.85;1.67;;;9.40;99.90;;;;;;4774682;30;20685;-61
2024/01/31 11:52:34;;;;;;;5.75;1.80;;;9.20;99.90;;;;;;4790699;30;20213;-61
2024/01/31 11:55:00;;;;;;;3.00;1.52;;;9.30;99.90;;;;;;4790619;30;20215;-61
2024/01/31 11:57:28;;;;;;;4.70;1.50;;;9.30;99.90;;;;;;4790568;30;20188;-61
2024/01/31 11:59:54;;;;;;;6.85;1.83;;;9.30;99.90;;;;;;4790677;30;20279;-61
2024/01/31 12:02:20;;;;;;;3.88;1.60;;;9.40;99.90;;;;;;4790599;30;20677;-61
2024/01/31 12:04:51;;;;;;;2.30;1.50;;;9.30;99.90;;;;;;4790623;30;20189;-61
2024/01/31 12:07:18;;;;;;;3.67;1.50;;;9.40;99.90;;;;;;4790328;30;20247;-61
2024/01/31 12:09:43;;;;;;;3.53;1.65;;;9.30;99.90;;;;;;4790341;30;20539;-61
2024/01/31 12:12:09;;;;;;;3.90;1.88;;;9.30;99.90;;;;;;4790432;30;20221;-61
2024/01/31 12:14:35;;;;;;;3.90;1.75;;;9.50;99.90;;;;;;4790485;30;20191;-61
2024/01/31 12:17:01;;;;;;;4.63;1.75;;;9.60;99.90;;;;;;4790502;30;20247;-61
2024/01/31 12:19:29;;;;;;;4.63;1.85;;;9.80;99.90;;;;;;4790307;30;20539;-61
2024/01/31 12:21:55;;;;;;;3.78;1.88;;;9.70;99.90;;;;;;4790056;30;20184;-61
2024/01/31 12:24:21;;;;;;;3.53;1.60;;;9.80;99.90;;;;;;4790110;30;20192;-61
2024/01/31 12:26:46;;;;;;;5.47;1.80;;;10.00;99.90;;;;;;4790348;30;20580;-61
2024/01/31 12:29:12;;;;;;;3.75;1.70;;;9.80;99.90;;;;;;4790349;30;20650;-61
2024/01/31 12:31:38;;;;;;;3.70;1.60;;;9.90;99.90;;;;;;4789846;30;20177;-61
2024/01/31 12:34:03;;;;;;;5.13;2.10;;;9.90;99.90;;;;;;4789755;30;20180;-61
2024/01/31 12:36:29;;;;;;;5.20;1.90;;;9.80;99.90;;;;;;4789268;29;20215;-61
2024/01/31 12:38:55;;;;;;;4.53;1.70;;;9.90;99.90;;;;;;4789932;30;20619;-61
2024/01/31 12:41:20;;;;;;;3.35;1.92;;;9.90;99.90;;;;;;4790112;30;20184;-61
2024/01/31 12:43:46;;;;;;;4.65;1.80;;;10.00;99.90;;;;;;4790005;30;20242;-61
2024/01/31 12:46:12;;;;;;;6.35;1.85;;;9.90;99.90;;;;;;4773701;30;20725;-61
2024/01/31 12:48:38;;;;;;;2.55;1.48;;;9.90;99.90;;;;;;4789874;30;20275;-61
2024/01/31 12:51:03;;;;;;;2.40;1.30;;;9.70;99.90;;;;;;4790214;30;20511;-61
2024/01/31 12:53:29;;;;;;;3.20;1.60;;;9.80;99.90;;;;;;4789643;30;20185;-61
2024/01/31 12:55:55;;;;;;;3.03;1.58;;;9.90;99.90;;;;;;4789972;30;20189;-61
2024/01/31 12:58:20;;;;;;;2.80;1.70;;;9.80;99.90;;;;;;4789730;30;20196;-61
2024/01/31 13:00:46;;;;;;;4.82;1.73;;;9.70;99.90;;;;;;4789660;30;20187;-61
2024/01/31 13:03:11;;;;;;;4.05;1.75;;;9.80;99.90;;;;;;4789549;30;20212;-61
2024/01/31 13:05:37;;;;;;;5.55;1.70;;;9.80;99.90;;;;;;4789801;30;20212;-61
2024/01/31 13:08:03;;;;;;;4.15;1.73;;;9.90;99.90;;;;;;4789322;30;20271;-61
2024/01/31 13:10:29;;;;;;;5.32;1.90;;;9.70;99.90;;;;;;4789623;30;20707;-61
2024/01/31 13:12:54;;;;;;;3.95;1.80;;;9.70;99.90;;;;;;4789511;30;20185;-61
2024/01/31 13:15:23;;;;;;;5.00;1.80;;;9.70;99.90;;;;;;4788865;30;20189;-61
2024/01/31 13:17:49;;;;;;;5.00;1.80;;;9.80;99.90;;;;;;4788924;30;20646;-61
2024/01/31 13:20:15;;;;;;;5.28;1.80;;;9.90;99.90;;;;;;4789272;30;20188;-61
2024/01/31 13:22:40;;;;;;;3.35;1.92;;;10.00;99.90;;;;;;4789133;30;20650;-61
2024/01/31 13:25:07;;;;;;;6.20;1.95;;;10.10;99.90;;;;;;4789351;30;20664;-61
2024/01/31 13:27:32;;;;;;;6.10;1.85;;;10.00;99.90;;;;;;4789141;30;20217;-61
2024/01/31 13:29:58;;;;;;;5.13;2.08;;;9.90;99.90;;;;;;4773051;30;20191;-61
2024/01/31 13:32:23;;;;;;;5.05;2.00;;;9.90;99.90;;;;;;4788842;30;20181;-61
2024/01/31 13:34:49;;;;;;;5.68;2.20;;;9.80;99.90;;;;;;4788917;30;20185;-61